sensor_id;sensor_type;location;lat;lon;timestamp;pressure;altitude;pressure_sealevel;temperature;humidity
69524;BME280;56723;42.694;23.286;2023-05-25T14:12:31;94998.22;;;23.68;38.19
69524;BME280;56723;42.694;23.286;2023-05-25T14:14:59;95003.03;;;23.71;38.30
69524;BME280;56723;42.694;23.286;2023-05-25T14:17:26;94999.44;;;23.82;38.47
69524;BME280;56723;42.694;23.286;2023-05-25T14:19:53;94997.81;;;24.03;38.58
69524;BME280;56723;42.694;23.286;2023-05-25T14:22:20;94994.44;;;24.13;36.05
69524;BME280;56723;42.694;23.286;2023-05-25T14:24:49;94988.81;;;24.26;36.61
69524;BME280;56723;42.694;23.286;2023-05-25T14:27:17;94983.81;;;24.30;37.50
69524;BME280;56723;42.694;23.286;2023-05-25T14:29:49;94974.09;;;24.40;36.65
69524;BME280;56723;42.694;23.286;2023-05-25T14:32:17;94970.38;;;24.41;35.79
69524;BME280;56723;42.694;23.286;2023-05-25T14:34:45;94960.03;;;24.40;37.08
69524;BME280;56723;42.694;23.286;2023-05-25T14:37:12;94966.06;;;24.62;37.15
69524;BME280;56723;42.694;23.286;2023-05-25T14:39:40;94960.59;;;24.79;36.64
69524;BME280;56723;42.694;23.286;2023-05-25T14:42:07;94965.25;;;24.62;37.67
69524;BME280;56723;42.694;23.286;2023-05-25T14:44:35;94969.56;;;24.68;38.03
69524;BME280;56723;42.694;23.286;2023-05-25T14:47:02;94971.88;;;24.96;36.51
69524;BME280;56723;42.694;23.286;2023-05-25T14:49:33;94962.66;;;25.04;36.45
69524;BME280;56723;42.694;23.286;2023-05-25T14:52:00;94969.00;;;25.03;37.03
69524;BME280;56723;42.694;23.286;2023-05-25T14:54:27;94967.66;;;25.00;35.67
69524;BME280;56723;42.694;23.286;2023-05-25T14:56:55;94955.09;;;24.91;35.62
69524;BME280;56723;42.694;23.286;2023-05-25T14:59:23;94958.63;;;24.96;35.47
69524;BME280;56723;42.694;23.286;2023-05-25T15:01:50;94959.69;;;24.95;36.84
69524;BME280;56723;42.694;23.286;2023-05-25T15:04:17;94954.19;;;25.12;35.38
69524;BME280;56723;42.694;23.286;2023-05-25T15:06:45;94947.69;;;25.35;35.28
69524;BME280;56723;42.694;23.286;2023-05-25T15:09:13;94949.22;;;25.26;35.88
69524;BME280;56723;42.694;23.286;2023-05-25T15:11:41;94938.75;;;24.99;35.63
69524;BME280;56723;42.694;23.286;2023-05-25T15:14:08;94935.88;;;24.68;37.07
69524;BME280;56723;42.694;23.286;2023-05-25T15:16:37;94939.84;;;24.66;37.15
69524;BME280;56723;42.694;23.286;2023-05-25T15:19:04;94948.56;;;24.61;38.42
69524;BME280;56723;42.694;23.286;2023-05-25T15:21:34;94945.13;;;24.61;38.28
69524;BME280;56723;42.694;23.286;2023-05-25T15:24:02;94935.06;;;24.63;38.31
69524;BME280;56723;42.694;23.286;2023-05-25T15:26:29;94948.63;;;24.71;37.54
69524;BME280;56723;42.694;23.286;2023-05-25T15:28:56;94944.75;;;24.84;38.02
69524;BME280;56723;42.694;23.286;2023-05-25T15:31:23;94940.50;;;24.83;37.31
69524;BME280;56723;42.694;23.286;2023-05-25T15:33:53;94938.28;;;24.70;36.37
69524;BME280;56723;42.694;23.286;2023-05-25T15:36:24;94942.66;;;24.91;38.14
69524;BME280;56723;42.694;23.286;2023-05-25T15:38:51;94944.22;;;24.87;36.02
69524;BME280;56723;42.694;23.286;2023-05-25T15:41:18;94959.44;;;24.65;38.69
69524;BME280;56723;42.694;23.286;2023-05-25T15:43:53;94952.09;;;24.13;45.62
69524;BME280;56723;42.694;23.286;2023-05-25T15:46:26;94968.19;;;23.58;49.27
69524;BME280;56723;42.694;23.286;2023-05-25T15:48:54;94957.56;;;22.92;53.85
69524;BME280;56723;42.694;23.286;2023-05-25T15:51:22;94968.66;;;22.27;57.81
69524;BME280;56723;42.694;23.286;2023-05-25T15:53:49;94954.09;;;21.80;59.04
69524;BME280;56723;42.694;23.286;2023-05-25T15:56:16;94944.38;;;21.40;61.82
69524;BME280;56723;42.694;23.286;2023-05-25T15:58:43;94947.03;;;21.05;66.10
69524;BME280;56723;42.694;23.286;2023-05-25T16:01:14;94938.84;;;20.66;69.73
69524;BME280;56723;42.694;23.286;2023-05-25T16:03:42;94956.19;;;20.32;70.39
69524;BME280;56723;42.694;23.286;2023-05-25T16:06:10;94958.97;;;19.96;73.06
69524;BME280;56723;42.694;23.286;2023-05-25T16:08:39;94984.00;;;19.68;76.25
